createdAt,value
2023-10-20T00:01:05.828Z,20.63
2023-10-20T00:03:32.829Z,19.75
2023-10-20T00:06:00.742Z,20.45
2023-10-20T00:08:28.860Z,20.90
2023-10-20T00:10:58.581Z,19.03
2023-10-20T00:13:26.167Z,20.58
2023-10-20T00:15:53.597Z,20.27
2023-10-20T00:18:20.876Z,20.60
2023-10-20T00:20:47.804Z,19.65
2023-10-20T00:23:16.105Z,19.93
2023-10-20T00:25:43.927Z,19.17
2023-10-20T00:28:11.602Z,21.65
2023-10-20T00:30:40.306Z,20.73
2023-10-20T00:33:07.643Z,20.52
2023-10-20T00:35:34.950Z,22.40
2023-10-20T00:38:02.363Z,20.17
2023-10-20T00:40:30.120Z,19.80
2023-10-20T00:42:57.354Z,20.83
2023-10-20T00:45:24.679Z,20.45
2023-10-20T00:47:51.666Z,20.00
2023-10-20T00:50:19.139Z,20.05
2023-10-20T00:52:50.690Z,20.02
2023-10-20T00:55:18.999Z,20.73
2023-10-20T00:57:47.044Z,20.15
2023-10-20T01:00:15.225Z,18.47
2023-10-20T01:02:42.842Z,21.60
2023-10-20T01:05:11.280Z,20.65
2023-10-20T01:07:38.758Z,20.83
2023-10-20T01:10:06.673Z,21.30
2023-10-20T01:12:34.222Z,20.17
2023-10-20T01:15:01.782Z,21.27
2023-10-20T01:17:29.806Z,21.88
2023-10-20T01:19:57.336Z,19.98
2023-10-20T01:22:24.694Z,22.35
2023-10-20T01:24:51.617Z,22.03
2023-10-20T01:27:20.982Z,21.90
2023-10-20T01:29:48.344Z,22.38
2023-10-20T01:32:16.204Z,21.67
2023-10-20T01:34:43.093Z,22.13
2023-10-20T01:37:13.394Z,21.57
2023-10-20T01:39:40.654Z,21.52
2023-10-20T01:42:08.571Z,22.40
2023-10-20T01:44:35.991Z,21.42
2023-10-20T01:47:03.413Z,21.85
2023-10-20T01:49:30.361Z,21.63
2023-10-20T01:51:57.301Z,23.35
2023-10-20T01:54:25.867Z,23.73
2023-10-20T01:56:53.194Z,23.25
2023-10-20T01:59:20.229Z,22.38
2023-10-20T02:01:47.596Z,22.63
2023-10-20T02:04:15.706Z,23.95
2023-10-20T02:06:43.634Z,23.30
2023-10-20T02:09:10.981Z,21.65
2023-10-20T02:11:38.455Z,21.17
2023-10-20T02:14:05.782Z,22.40
2023-10-20T02:16:32.895Z,22.42
2023-10-20T02:19:00.524Z,21.55
2023-10-20T02:21:27.921Z,22.17
2023-10-20T02:23:54.837Z,22.40
2023-10-20T02:26:22.326Z,20.33
2023-10-20T02:28:49.622Z,21.40
2023-10-20T02:31:21.276Z,22.35
2023-10-20T02:33:48.977Z,21.63
2023-10-20T02:36:22.854Z,22.20
2023-10-20T02:38:54.949Z,20.90
2023-10-20T02:41:22.217Z,21.02
2023-10-20T02:43:49.762Z,21.67
2023-10-20T02:46:17.662Z,19.83
2023-10-20T02:48:45.143Z,21.23
2023-10-20T02:51:13.504Z,20.23
2023-10-20T02:53:41.038Z,19.80
2023-10-20T02:56:12.746Z,19.13
2023-10-20T02:58:40.410Z,20.42
2023-10-20T03:01:10.912Z,20.25
2023-10-20T03:03:38.603Z,19.20
2023-10-20T03:06:06.314Z,19.17
2023-10-20T03:08:33.241Z,19.92
2023-10-20T03:11:00.409Z,20.10
2023-10-20T03:13:28.187Z,19.45
2023-10-20T03:15:56.080Z,19.13
2023-10-20T03:18:24.654Z,21.13
2023-10-20T03:20:52.220Z,19.80
2023-10-20T03:23:20.732Z,21.27
2023-10-20T03:25:48.081Z,21.35
2023-10-20T03:28:15.382Z,21.03
2023-10-20T03:30:42.973Z,20.00
2023-10-20T03:33:14.470Z,20.15
2023-10-20T03:35:41.955Z,22.00
2023-10-20T03:38:10.199Z,21.55
2023-10-20T03:40:39.029Z,21.57
2023-10-20T03:43:06.966Z,19.95
2023-10-20T03:45:49.921Z,19.63
2023-10-20T03:48:18.077Z,21.30
2023-10-20T03:50:47.665Z,19.83
2023-10-20T03:53:38.615Z,19.77
2023-10-20T03:56:08.072Z,19.02
2023-10-20T03:58:37.161Z,19.38
2023-10-20T04:01:07.726Z,18.98
2023-10-20T04:03:34.773Z,19.77
2023-10-20T04:06:02.147Z,19.50
2023-10-20T04:08:29.444Z,17.52
2023-10-20T04:11:00.013Z,17.92
2023-10-20T04:13:29.192Z,19.55
2023-10-20T04:15:56.521Z,19.23
2023-10-20T04:18:23.718Z,18.97
2023-10-20T04:20:51.312Z,19.88
2023-10-20T04:23:19.024Z,18.90
2023-10-20T04:25:56.218Z,19.23
2023-10-20T04:28:50.500Z,19.05
2023-10-20T04:31:38.287Z,19.90
2023-10-20T04:34:24.990Z,18.58
2023-10-20T04:37:10.865Z,19.85
2023-10-20T04:39:56.414Z,17.67
2023-10-20T04:42:26.627Z,19.40
2023-10-20T04:45:20.486Z,18.63
2023-10-20T04:48:06.799Z,18.77
2023-10-20T04:50:53.412Z,18.70
2023-10-20T04:53:26.644Z,18.58
2023-10-20T04:56:12.841Z,17.42
2023-10-20T04:58:44.744Z,19.37
2023-10-20T05:01:25.683Z,18.77
2023-10-20T05:03:56.364Z,18.38
2023-10-20T05:06:41.470Z,18.45
2023-10-20T05:09:13.984Z,19.63
2023-10-20T05:11:41.668Z,18.77
2023-10-20T05:14:08.882Z,15.80
2023-10-20T05:16:36.217Z,19.80
2023-10-20T05:19:05.291Z,19.75
2023-10-20T05:21:39.262Z,16.85
2023-10-20T05:24:06.656Z,16.70
2023-10-20T05:26:34.103Z,17.40
2023-10-20T05:29:02.337Z,18.25
2023-10-20T05:31:31.239Z,16.80
2023-10-20T05:33:58.818Z,18.95
2023-10-20T05:36:26.099Z,16.10
2023-10-20T05:38:53.405Z,15.82
2023-10-20T05:41:20.714Z,15.80
2023-10-20T05:43:48.098Z,15.68
2023-10-20T05:46:18.988Z,14.82
2023-10-20T05:48:47.729Z,14.00
2023-10-20T05:51:15.349Z,14.70
2023-10-20T05:53:42.201Z,13.60
2023-10-20T05:56:11.602Z,12.30
2023-10-20T05:58:39.332Z,14.80
2023-10-20T06:01:12.448Z,12.97
2023-10-20T06:03:39.887Z,12.77
2023-10-20T06:06:07.337Z,12.52
2023-10-20T06:08:34.844Z,11.60
2023-10-20T06:11:05.932Z,10.68
2023-10-20T06:13:34.108Z,10.80
2023-10-20T06:16:12.169Z,10.43
2023-10-20T06:18:41.340Z,11.77
2023-10-20T06:21:14.439Z,10.52
2023-10-20T06:23:41.948Z,10.27
2023-10-20T06:26:09.311Z,9.97
2023-10-20T06:28:36.648Z,9.13
2023-10-20T06:31:23.840Z,6.88
2023-10-20T06:33:58.866Z,9.40
2023-10-20T06:36:27.564Z,9.32
2023-10-20T06:38:55.677Z,9.87
2023-10-20T06:41:23.060Z,9.70
2023-10-20T06:43:52.150Z,10.48
2023-10-20T06:46:20.421Z,9.90
2023-10-20T06:48:49.116Z,9.65
2023-10-20T06:51:16.418Z,10.80
2023-10-20T06:53:43.372Z,10.05
2023-10-20T06:56:16.124Z,10.10
2023-10-20T06:58:45.097Z,9.88
2023-10-20T07:01:12.433Z,9.90
2023-10-20T07:03:39.886Z,10.87
2023-10-20T07:06:12.111Z,9.15
2023-10-20T07:08:39.640Z,9.88
2023-10-20T07:11:07.050Z,10.07
2023-10-20T07:13:34.348Z,10.80
2023-10-20T07:16:01.932Z,9.77
2023-10-20T07:18:29.120Z,10.88
2023-10-20T07:20:58.516Z,10.77
2023-10-20T07:23:26.645Z,10.10
2023-10-20T07:25:54.598Z,9.82
2023-10-20T07:31:17.361Z,9.68
2023-10-20T07:33:44.611Z,10.75
2023-10-20T07:36:11.882Z,10.30
2023-10-20T07:38:40.190Z,10.43
2023-10-20T07:41:08.479Z,6.90
2023-10-20T07:43:35.805Z,10.88
2023-10-20T07:46:03.923Z,21.83
2023-10-20T07:48:36.370Z,9.60
2023-10-20T07:51:04.377Z,8.75
2023-10-20T07:53:31.515Z,9.50
2023-10-20T07:55:58.872Z,8.65
2023-10-20T07:58:26.190Z,10.15
2023-10-20T08:00:54.593Z,9.57
2023-10-20T08:03:21.934Z,9.75
2023-10-20T08:05:49.749Z,8.70
2023-10-20T08:08:18.458Z,9.90
2023-10-20T08:10:45.865Z,9.13
2023-10-20T08:13:13.158Z,9.00
2023-10-20T08:15:40.677Z,8.35
2023-10-20T08:18:08.710Z,7.97
2023-10-20T08:20:37.375Z,7.60
2023-10-20T08:23:05.047Z,7.88
2023-10-20T08:25:32.449Z,7.30
2023-10-20T08:27:59.864Z,6.30
2023-10-20T08:30:27.150Z,7.33
2023-10-20T08:32:54.506Z,6.50
2023-10-20T08:35:22.670Z,5.97
2023-10-20T08:37:49.968Z,6.10
2023-10-20T08:40:17.346Z,6.60
2023-10-20T08:42:44.868Z,6.23
2023-10-20T08:45:16.078Z,5.40
2023-10-20T08:47:44.607Z,4.60
2023-10-20T08:50:17.220Z,5.90
2023-10-20T08:52:45.977Z,4.50
2023-10-20T08:55:14.571Z,5.43
2023-10-20T08:57:42.124Z,4.88
2023-10-20T09:00:20.382Z,4.63
2023-10-20T09:02:48.215Z,9.20
2023-10-20T09:05:25.564Z,5.30
2023-10-20T09:08:00.635Z,4.60
2023-10-20T09:10:27.943Z,4.05
2023-10-20T09:12:55.458Z,4.05
2023-10-20T09:15:22.469Z,4.00
2023-10-20T09:17:57.518Z,3.95
2023-10-20T09:20:26.182Z,4.17
2023-10-20T09:22:53.613Z,2.97
2023-10-20T09:25:21.146Z,4.18
2023-10-20T09:27:48.599Z,3.60
2023-10-20T09:30:16.277Z,3.30
2023-10-20T09:32:43.732Z,3.60
2023-10-20T09:35:11.747Z,3.53
2023-10-20T09:37:41.942Z,3.10
2023-10-20T09:40:10.404Z,3.15
2023-10-20T09:43:14.878Z,3.40
2023-10-20T09:45:53.310Z,3.60
2023-10-20T09:48:22.117Z,3.03
2023-10-20T09:50:52.099Z,2.97
2023-10-20T09:53:20.044Z,2.90
2023-10-20T09:55:48.693Z,2.38
2023-10-20T09:58:27.913Z,2.90
2023-10-20T10:00:56.829Z,2.53
2023-10-20T10:03:39.455Z,2.58
2023-10-20T10:06:20.792Z,2.55
2023-10-20T10:08:48.934Z,2.63
2023-10-20T10:11:29.738Z,2.63
2023-10-20T10:14:02.366Z,2.25
2023-10-20T10:16:29.985Z,2.30
2023-10-20T10:19:08.037Z,2.50
2023-10-20T10:21:39.898Z,2.40
2023-10-20T10:24:18.739Z,2.70
2023-10-20T10:26:56.588Z,2.40
2023-10-20T10:30:10.906Z,2.08
2023-10-20T10:32:53.246Z,2.03
2023-10-20T10:35:24.257Z,2.30
2023-10-20T10:37:54.154Z,2.10
2023-10-20T10:40:23.707Z,2.20
2023-10-20T10:42:51.905Z,2.30
2023-10-20T10:45:22.611Z,2.20
2023-10-20T10:47:51.184Z,2.20
2023-10-20T10:50:21.331Z,2.10
2023-10-20T10:52:51.946Z,3.30
2023-10-20T10:55:19.973Z,2.50
2023-10-20T10:57:47.700Z,2.50
2023-10-20T11:00:17.291Z,2.60
2023-10-20T11:02:46.080Z,3.97
2023-10-20T11:05:14.140Z,2.58
2023-10-20T11:07:41.653Z,2.50
2023-10-20T11:10:09.320Z,2.03
2023-10-20T11:12:36.840Z,1.92
2023-10-20T11:15:07.924Z,3.07
2023-10-20T11:17:36.375Z,2.50
2023-10-20T11:20:03.728Z,2.25
2023-10-20T11:22:38.802Z,2.45
2023-10-20T11:25:06.593Z,1.90
2023-10-20T11:27:52.663Z,2.00
2023-10-20T11:30:32.430Z,2.03
2023-10-20T11:33:00.101Z,2.00
2023-10-20T11:35:27.874Z,2.60
2023-10-20T11:37:56.018Z,2.20
2023-10-20T11:40:23.721Z,2.20
2023-10-20T11:42:51.185Z,2.20
2023-10-20T11:45:18.445Z,2.00
2023-10-20T11:47:46.470Z,2.60
2023-10-20T11:50:14.951Z,2.22
2023-10-20T11:52:43.026Z,2.43
2023-10-20T11:55:11.072Z,3.90
2023-10-20T11:57:39.093Z,4.40
2023-10-20T12:00:10.751Z,3.45
2023-10-20T12:02:41.567Z,2.65
2023-10-20T12:05:09.774Z,3.20
2023-10-20T12:07:37.409Z,2.72
2023-10-20T12:10:07.377Z,4.65
2023-10-20T12:12:35.416Z,2.47
2023-10-20T12:15:03.965Z,1.95
2023-10-20T12:17:31.859Z,5.90
2023-10-20T12:19:59.343Z,5.18
2023-10-20T12:22:29.314Z,4.13
2023-10-20T12:24:56.649Z,3.65
2023-10-20T12:27:23.932Z,8.73
2023-10-20T12:29:50.854Z,3.47
2023-10-20T12:32:18.430Z,2.85
2023-10-20T12:34:45.940Z,2.80
2023-10-20T12:37:13.210Z,2.25
2023-10-20T12:39:41.507Z,3.53
2023-10-20T12:42:09.389Z,4.27
2023-10-20T12:44:37.376Z,5.30
2023-10-20T12:47:06.336Z,4.25
2023-10-20T12:49:33.636Z,2.72
2023-10-20T12:52:00.976Z,3.42
2023-10-20T12:54:28.240Z,3.00
2023-10-20T12:56:55.988Z,3.90
2023-10-20T12:59:23.238Z,3.00
2023-10-20T13:01:51.258Z,4.55
2023-10-20T13:04:18.811Z,3.80
2023-10-20T13:06:59.152Z,3.37
2023-10-20T13:09:28.300Z,2.55
2023-10-20T13:11:57.526Z,3.00
2023-10-20T13:14:24.993Z,2.70
2023-10-20T13:16:52.322Z,5.97
2023-10-20T13:19:19.699Z,2.90
2023-10-20T13:21:46.963Z,3.10
2023-10-20T13:24:14.282Z,2.58
2023-10-20T13:26:41.600Z,3.20
2023-10-20T13:29:08.978Z,2.40
2023-10-20T13:31:36.042Z,3.57
2023-10-20T13:34:04.019Z,2.78
2023-10-20T13:36:31.568Z,3.15
2023-10-20T13:38:58.906Z,3.08
2023-10-20T13:41:26.323Z,5.43
2023-10-20T13:43:53.656Z,2.53
2023-10-20T13:46:20.973Z,4.82
2023-10-20T13:48:48.570Z,4.68
2023-10-20T13:51:16.512Z,2.30
2023-10-20T13:53:44.011Z,2.90
2023-10-20T13:56:11.331Z,3.83
2023-10-20T13:58:38.627Z,2.20
2023-10-20T14:01:06.001Z,8.32
2023-10-20T14:03:33.221Z,5.18
2023-10-20T14:06:00.771Z,1.83
2023-10-20T14:08:28.136Z,2.33
2023-10-20T14:10:56.712Z,1.90
2023-10-20T14:13:24.072Z,2.60
2023-10-20T14:15:51.341Z,2.00
2023-10-20T14:18:19.193Z,2.05
2023-10-20T14:20:46.693Z,2.00
2023-10-20T14:23:14.336Z,2.88
2023-10-20T14:25:41.275Z,1.83
2023-10-20T14:28:08.629Z,1.88
2023-10-20T14:30:35.939Z,1.80
2023-10-20T14:33:03.074Z,1.80
2023-10-20T14:35:30.467Z,2.20
2023-10-20T14:37:58.015Z,2.72
2023-10-20T14:40:25.329Z,3.40
2023-10-20T14:42:52.593Z,3.20
2023-10-20T14:45:19.928Z,1.77
2023-10-20T14:47:47.486Z,2.45
2023-10-20T14:50:14.845Z,2.15
2023-10-20T14:52:42.173Z,2.33
2023-10-20T14:55:13.942Z,2.17
2023-10-20T14:57:41.453Z,2.53
2023-10-20T15:00:11.023Z,2.45
2023-10-20T15:02:42.433Z,1.90
2023-10-20T15:05:10.243Z,2.00
2023-10-20T15:07:37.550Z,2.10
2023-10-20T15:10:05.525Z,2.10
2023-10-20T15:12:33.106Z,2.00
2023-10-20T15:15:00.722Z,2.20
2023-10-20T15:17:28.456Z,2.22
2023-10-20T15:19:55.553Z,3.50
2023-10-20T15:22:23.670Z,2.90
2023-10-20T15:24:52.974Z,2.00
2023-10-20T15:27:20.349Z,2.63
2023-10-20T15:29:47.815Z,2.20
2023-10-20T15:32:16.797Z,3.00
2023-10-20T15:34:44.092Z,3.00
2023-10-20T15:37:11.406Z,2.90
2023-10-20T15:39:49.074Z,5.07
2023-10-20T15:42:24.742Z,2.97
2023-10-20T15:44:51.736Z,3.85
2023-10-20T15:47:18.635Z,4.47
2023-10-20T15:49:45.987Z,3.97
2023-10-20T15:52:13.423Z,4.10
2023-10-20T15:54:40.761Z,3.53
2023-10-20T15:57:08.163Z,3.88
2023-10-20T15:59:35.646Z,4.40
2023-10-20T16:02:03.058Z,3.80
2023-10-20T16:04:30.378Z,3.58
2023-10-20T16:06:57.746Z,4.70
2023-10-20T16:09:24.621Z,3.78
2023-10-20T16:11:51.894Z,6.53
2023-10-20T16:14:19.179Z,4.70
2023-10-20T16:16:46.791Z,3.80
2023-10-20T16:19:15.987Z,4.03
2023-10-20T16:21:43.222Z,6.25
2023-10-20T16:24:14.343Z,4.60
2023-10-20T16:26:41.683Z,4.05
2023-10-20T16:29:08.564Z,5.47
2023-10-20T16:31:35.855Z,4.57
2023-10-20T16:34:03.168Z,5.65
2023-10-20T16:36:30.571Z,5.43
2023-10-20T16:38:58.398Z,4.15
2023-10-20T16:41:25.267Z,4.85
2023-10-20T16:43:52.619Z,5.20
2023-10-20T16:46:20.167Z,6.05
2023-10-20T16:48:49.966Z,8.47
2023-10-20T16:51:17.658Z,5.78
2023-10-20T16:53:47.770Z,6.88
2023-10-20T16:56:15.648Z,7.18
2023-10-20T16:58:42.643Z,6.90
2023-10-20T17:01:09.534Z,8.63
2023-10-20T17:03:36.746Z,8.02
2023-10-20T17:06:07.209Z,8.25
2023-10-20T17:08:34.982Z,11.88
2023-10-20T17:11:05.793Z,10.00
2023-10-20T17:13:33.406Z,11.47
2023-10-20T17:16:07.335Z,10.27
2023-10-20T17:18:34.938Z,10.40
2023-10-20T17:21:09.080Z,11.85
2023-10-20T17:23:39.187Z,12.27
2023-10-20T17:26:07.033Z,12.07
2023-10-20T17:28:34.497Z,11.43
2023-10-20T17:31:03.817Z,14.18
2023-10-20T17:33:31.396Z,14.23
2023-10-20T17:36:08.644Z,14.85
2023-10-20T17:38:35.666Z,11.43
2023-10-20T17:41:08.541Z,12.77
2023-10-20T17:43:37.290Z,13.00
2023-10-20T17:46:05.498Z,12.55
2023-10-20T17:48:33.254Z,14.30
2023-10-20T17:51:01.096Z,15.03
2023-10-20T17:53:29.197Z,16.50
2023-10-20T17:55:56.111Z,18.88
2023-10-20T17:58:23.670Z,17.13
2023-10-20T18:00:52.014Z,22.55
2023-10-20T18:03:20.690Z,19.00
2023-10-20T18:05:49.991Z,20.90
2023-10-20T18:08:19.439Z,17.13
2023-10-20T18:10:46.362Z,16.63
2023-10-20T18:13:13.840Z,15.48
2023-10-20T18:15:41.217Z,13.80
2023-10-20T18:18:08.139Z,14.48
2023-10-20T18:20:39.568Z,13.60
2023-10-20T18:23:06.897Z,12.52
2023-10-20T18:25:34.005Z,10.80
2023-10-20T18:28:01.868Z,13.10
2023-10-20T18:30:30.120Z,13.32
2023-10-20T18:32:57.509Z,12.10
2023-10-20T18:35:24.820Z,12.32
2023-10-20T18:37:52.127Z,13.05
2023-10-20T18:40:19.158Z,13.80
2023-10-20T18:42:46.085Z,15.50
2023-10-20T18:45:13.009Z,12.23
2023-10-20T18:47:40.306Z,13.35
2023-10-20T18:50:07.974Z,13.75
2023-10-20T18:52:35.755Z,12.73
2023-10-20T18:55:04.315Z,12.13
2023-10-20T18:57:31.598Z,13.85
2023-10-20T18:59:58.905Z,11.43
2023-10-20T19:02:26.230Z,12.27
2023-10-20T19:04:53.554Z,11.37
2023-10-20T19:07:20.816Z,11.38
2023-10-20T19:09:48.277Z,10.73
2023-10-20T19:12:15.530Z,10.80
2023-10-20T19:14:42.420Z,11.23
2023-10-20T19:17:09.729Z,10.37
2023-10-20T19:19:36.662Z,11.13
2023-10-20T19:22:04.014Z,10.73
2023-10-20T19:24:30.915Z,10.35
2023-10-20T19:26:58.275Z,10.40
2023-10-20T19:29:25.739Z,9.80
2023-10-20T19:31:52.568Z,11.20
2023-10-20T19:34:20.334Z,10.27
2023-10-20T19:36:48.371Z,10.10
2023-10-20T19:39:16.339Z,11.00
2023-10-20T19:41:43.895Z,9.43
2023-10-20T19:44:10.826Z,11.00
2023-10-20T19:46:38.103Z,9.90
2023-10-20T19:49:05.567Z,10.18
2023-10-20T19:51:32.832Z,9.60
2023-10-20T19:54:00.168Z,10.07
2023-10-20T19:56:27.512Z,10.60
2023-10-20T19:58:54.424Z,10.35
2023-10-20T20:01:21.854Z,9.63
2023-10-20T20:03:48.887Z,9.40
2023-10-20T20:06:16.046Z,9.57
2023-10-20T20:08:45.394Z,10.10
2023-10-20T20:11:12.380Z,10.18
2023-10-20T20:13:41.305Z,7.85
2023-10-20T20:16:10.825Z,9.50
2023-10-20T20:18:40.432Z,10.63
2023-10-20T20:21:09.809Z,7.60
2023-10-20T20:23:37.567Z,10.43
2023-10-20T20:26:05.046Z,10.60
2023-10-20T20:28:34.041Z,9.60
2023-10-20T20:31:01.441Z,10.90
2023-10-20T20:33:28.487Z,10.25
2023-10-20T20:35:57.496Z,10.65
2023-10-20T20:38:24.834Z,10.77
2023-10-20T20:40:51.880Z,11.07
2023-10-20T20:43:18.826Z,9.53
2023-10-20T20:45:56.251Z,10.60
2023-10-20T20:48:23.783Z,9.73
2023-10-20T20:50:50.892Z,10.10
2023-10-20T20:53:18.373Z,9.77
2023-10-20T20:55:47.251Z,10.07
2023-10-20T20:58:14.561Z,9.50
2023-10-20T21:00:41.905Z,10.23
2023-10-20T21:03:08.972Z,9.80
2023-10-20T21:05:35.975Z,9.18
2023-10-20T21:08:03.158Z,9.63
2023-10-20T21:10:31.461Z,11.02
2023-10-20T21:12:58.723Z,10.13
2023-10-20T21:15:25.694Z,9.75
2023-10-20T21:17:53.031Z,10.35
2023-10-20T21:20:20.027Z,8.30
2023-10-20T21:22:49.279Z,9.55
2023-10-20T21:25:17.733Z,9.32
2023-10-20T21:27:44.576Z,10.02
2023-10-20T21:30:12.410Z,9.13
2023-10-20T21:32:39.363Z,8.93
2023-10-20T21:35:06.927Z,9.38
2023-10-20T21:37:33.809Z,8.93
2023-10-20T21:40:01.071Z,8.60
2023-10-20T21:42:28.368Z,8.63
2023-10-20T21:44:55.631Z,7.97
2023-10-20T21:47:24.398Z,8.43
2023-10-20T21:49:51.390Z,8.50
2023-10-20T21:52:18.608Z,7.93
2023-10-20T21:54:45.421Z,8.73
2023-10-20T21:57:12.383Z,8.30
2023-10-20T21:59:39.750Z,8.02
2023-10-20T22:02:10.108Z,7.78
2023-10-20T22:04:37.848Z,8.57
2023-10-20T22:07:05.133Z,7.75
2023-10-20T22:09:46.542Z,7.73
2023-10-20T22:12:19.168Z,8.43
2023-10-20T22:14:46.019Z,7.93
2023-10-20T22:17:13.308Z,7.10
2023-10-20T22:19:40.146Z,7.22
2023-10-20T22:22:07.433Z,5.40
2023-10-20T22:24:34.408Z,7.53
2023-10-20T22:27:01.776Z,7.93
2023-10-20T22:29:29.073Z,7.65
2023-10-20T22:31:56.333Z,7.28
2023-10-20T22:34:23.562Z,7.73
2023-10-20T22:36:51.151Z,8.20
2023-10-20T22:39:18.708Z,8.07
2023-10-20T22:41:46.019Z,7.60
2023-10-20T22:44:13.588Z,7.97
2023-10-20T22:46:40.940Z,7.27
2023-10-20T22:49:07.822Z,6.90
2023-10-20T22:51:34.714Z,7.35
2023-10-20T22:54:02.039Z,7.00
2023-10-20T22:56:32.054Z,7.40
2023-10-20T22:58:59.375Z,7.23
2023-10-20T23:01:26.861Z,7.18
2023-10-20T23:03:53.889Z,7.40
2023-10-20T23:06:20.902Z,6.78
2023-10-20T23:08:48.274Z,7.30
2023-10-20T23:11:15.589Z,6.60
2023-10-20T23:13:42.837Z,7.45
2023-10-20T23:16:09.775Z,6.80
2023-10-20T23:18:37.125Z,6.93
2023-10-20T23:21:04.218Z,6.60
2023-10-20T23:23:31.569Z,6.80
2023-10-20T23:25:58.802Z,6.72
2023-10-20T23:28:25.704Z,7.43
2023-10-20T23:30:52.545Z,6.50
2023-10-20T23:33:19.963Z,5.93
2023-10-20T23:35:49.105Z,6.33
2023-10-20T23:38:16.598Z,6.93
2023-10-20T23:40:43.987Z,6.43
2023-10-20T23:43:11.262Z,6.68
2023-10-20T23:45:38.512Z,6.63
2023-10-20T23:48:05.766Z,7.00
2023-10-20T23:50:33.126Z,6.80
2023-10-20T23:53:00.502Z,6.82
2023-10-20T23:55:30.622Z,7.35
2023-10-20T23:57:57.877Z,6.82
